createdAt,value
2018-06-22T00:00:36.502Z,1012.84
2018-06-22T00:01:36.431Z,1012.89
2018-06-22T00:02:36.401Z,1012.78
2018-06-22T00:03:36.370Z,1012.84
2018-06-22T00:04:36.350Z,1012.92
2018-06-22T00:05:36.322Z,1012.90
2018-06-22T00:06:36.288Z,1012.76
2018-06-22T00:07:36.260Z,1012.84
2018-06-22T00:08:36.234Z,1013.00
2018-06-22T00:09:36.205Z,1013.02
2018-06-22T00:10:36.176Z,1012.89
2018-06-22T00:11:36.148Z,1012.95
2018-06-22T00:12:36.122Z,1012.86
2018-06-22T00:13:36.095Z,1013.04
2018-06-22T00:14:36.070Z,1012.83
2018-06-22T00:15:36.042Z,1013.02
2018-06-22T00:16:36.013Z,1012.88
2018-06-22T00:17:35.986Z,1012.85
2018-06-22T00:18:35.958Z,1013.01
2018-06-22T00:19:35.931Z,1013.01
2018-06-22T00:20:35.906Z,1012.89
2018-06-22T00:21:35.878Z,1013.01
2018-06-22T00:22:35.855Z,1012.99
2018-06-22T00:23:35.821Z,1012.85
2018-06-22T00:24:35.798Z,1013.01
2018-06-22T00:25:35.768Z,1012.92
2018-06-22T00:26:35.740Z,1012.91
2018-06-22T00:27:35.716Z,1012.95
2018-06-22T00:28:35.685Z,1012.84
2018-06-22T00:29:35.655Z,1012.90
2018-06-22T00:30:35.629Z,1012.90
2018-06-22T00:31:35.599Z,1012.96
2018-06-22T00:32:35.572Z,1012.90
2018-06-22T00:33:35.547Z,1012.90
2018-06-22T00:34:35.671Z,1012.82
2018-06-22T00:35:35.495Z,1012.96
2018-06-22T00:36:35.464Z,1012.72
2018-06-22T00:37:35.437Z,1012.79
2018-06-22T00:38:35.411Z,1012.70
2018-06-22T00:39:35.379Z,1012.78
2018-06-22T00:40:35.352Z,1012.71
2018-06-22T00:41:35.325Z,1012.81
2018-06-22T00:42:35.297Z,1012.79
2018-06-22T00:43:35.270Z,1012.77
2018-06-22T00:44:35.251Z,1012.76
2018-06-22T00:45:35.216Z,1012.84
2018-06-22T00:46:35.189Z,1012.65
2018-06-22T00:47:35.161Z,1012.69
2018-06-22T00:48:35.133Z,1012.79
2018-06-22T00:49:35.105Z,1012.72
2018-06-22T00:50:35.077Z,1012.77
2018-06-22T00:51:35.053Z,1012.80
2018-06-22T00:52:35.026Z,1012.70
2018-06-22T00:53:34.995Z,1012.83
2018-06-22T00:54:34.969Z,1012.92
2018-06-22T00:55:34.941Z,1012.95
2018-06-22T00:56:34.917Z,1012.99
2018-06-22T00:57:34.888Z,1012.92
2018-06-22T00:58:34.859Z,1013.00
2018-06-22T00:59:34.829Z,1012.71
2018-06-22T01:00:34.802Z,1012.71
2018-06-22T01:01:34.778Z,1012.76
2018-06-22T01:02:34.748Z,1012.71
2018-06-22T01:03:34.870Z,1012.82
2018-06-22T01:04:34.694Z,1012.75
2018-06-22T01:05:34.665Z,1012.66
2018-06-22T01:06:34.639Z,1012.84
2018-06-22T01:07:34.609Z,1012.72
2018-06-22T01:08:34.582Z,1012.62
2018-06-22T01:09:34.557Z,1012.72
2018-06-22T01:10:34.529Z,1012.69
2018-06-22T01:11:34.501Z,1012.68
2018-06-22T01:12:34.477Z,1012.70
2018-06-22T01:13:34.451Z,1012.63
2018-06-22T01:14:34.424Z,1012.65
2018-06-22T01:15:34.391Z,1012.67
2018-06-22T01:16:34.364Z,1012.46
2018-06-22T01:17:34.337Z,1012.58
2018-06-22T01:18:34.307Z,1012.60
2018-06-22T01:19:34.281Z,1012.52
2018-06-22T01:20:34.252Z,1012.52
2018-06-22T01:21:34.225Z,1012.55
2018-06-22T01:22:34.198Z,1012.57
2018-06-22T01:23:34.170Z,1012.44
2018-06-22T01:24:34.143Z,1012.60
2018-06-22T01:25:34.140Z,1012.45
2018-06-22T01:26:34.087Z,1012.62
2018-06-22T01:27:34.076Z,1012.48
2018-06-22T01:28:34.079Z,1012.61
2018-06-22T01:29:34.002Z,1012.55
2018-06-22T01:30:33.976Z,1012.66
2018-06-22T01:31:33.947Z,1012.42
2018-06-22T01:32:33.920Z,1012.68
2018-06-22T01:33:33.895Z,1012.47
2018-06-22T01:34:33.868Z,1012.45
2018-06-22T01:35:33.838Z,1012.52
2018-06-22T01:36:33.813Z,1012.50
2018-06-22T01:37:33.785Z,1012.56
2018-06-22T01:38:33.755Z,1012.52
2018-06-22T01:39:33.731Z,1012.39
2018-06-22T01:40:33.699Z,1012.47
2018-06-22T01:41:33.674Z,1012.39
2018-06-22T01:42:33.647Z,1012.47
2018-06-22T01:43:33.618Z,1012.50
2018-06-22T01:44:33.595Z,1012.50
2018-06-22T01:45:33.563Z,1012.68
2018-06-22T01:46:33.537Z,1012.53
2018-06-22T01:47:33.508Z,1012.69
2018-06-22T01:48:33.480Z,1012.73
2018-06-22T01:49:33.452Z,1012.79
2018-06-22T01:50:33.579Z,1012.80
2018-06-22T01:51:33.396Z,1012.74
2018-06-22T01:52:33.371Z,1012.88
2018-06-22T01:53:33.349Z,1012.86
2018-06-22T01:54:33.316Z,1012.82
2018-06-22T01:55:33.291Z,1012.90
2018-06-22T01:56:33.259Z,1012.79
2018-06-22T01:57:33.231Z,1012.79
2018-06-22T01:58:33.205Z,1012.81
2018-06-22T01:59:33.175Z,1012.83
2018-06-22T02:00:33.148Z,1012.87
2018-06-22T02:01:33.121Z,1012.82
2018-06-22T02:02:33.096Z,1012.74
2018-06-22T02:03:33.065Z,1012.55
2018-06-22T02:04:33.036Z,1012.64
2018-06-22T02:05:33.012Z,1012.62
2018-06-22T02:06:32.986Z,1012.64
2018-06-22T02:07:32.996Z,1012.62
2018-06-22T02:08:32.931Z,1012.57
2018-06-22T02:09:32.900Z,1012.67
2018-06-22T02:10:32.894Z,1012.59
2018-06-22T02:11:32.845Z,1012.63
2018-06-22T02:12:32.817Z,1012.56
2018-06-22T02:13:32.794Z,1012.57
2018-06-22T02:14:32.772Z,1012.56
2018-06-22T02:15:32.736Z,1012.61
2018-06-22T02:16:32.709Z,1012.48
2018-06-22T02:17:32.680Z,1012.71
2018-06-22T02:18:32.656Z,1012.54
2018-06-22T02:19:32.626Z,1012.58
2018-06-22T02:20:32.796Z,1012.55
2018-06-22T02:21:32.573Z,1012.66
2018-06-22T02:22:32.543Z,1012.60
2018-06-22T02:23:32.514Z,1012.59
2018-06-22T02:24:32.489Z,1012.50
2018-06-22T02:25:32.467Z,1012.65
2018-06-22T02:26:32.433Z,1012.22
2018-06-22T02:27:32.405Z,1012.55
2018-06-22T02:28:32.383Z,1012.48
2018-06-22T02:29:32.348Z,1012.44
2018-06-22T02:30:32.321Z,1012.49
2018-06-22T02:31:32.292Z,1012.59
2018-06-22T02:32:32.264Z,1012.37
2018-06-22T02:33:32.239Z,1012.40
2018-06-22T02:34:32.210Z,1012.33
2018-06-22T02:35:32.182Z,1012.09
2018-06-22T02:36:32.153Z,1012.05
2018-06-22T02:37:32.130Z,1012.32
2018-06-22T02:38:32.104Z,1012.31
2018-06-22T02:39:32.073Z,1012.33
2018-06-22T02:40:32.047Z,1012.29
2018-06-22T02:41:32.017Z,1012.27
2018-06-22T02:42:31.990Z,1012.27
2018-06-22T02:43:31.965Z,1012.39
2018-06-22T02:44:31.933Z,1012.37
2018-06-22T02:45:31.913Z,1012.44
2018-06-22T02:46:31.881Z,1012.46
2018-06-22T02:47:31.853Z,1012.49
2018-06-22T02:48:31.827Z,1012.62
2018-06-22T02:49:31.799Z,1012.67
2018-06-22T02:50:31.780Z,1012.75
2018-06-22T02:51:31.750Z,1012.76
2018-06-22T02:52:31.716Z,1012.77
2018-06-22T02:53:31.691Z,1012.85
2018-06-22T02:54:31.660Z,1012.84
2018-06-22T02:55:31.634Z,1012.81
2018-06-22T02:56:31.606Z,1012.92
2018-06-22T02:57:31.588Z,1012.95
2018-06-22T02:58:31.554Z,1012.93
2018-06-22T02:59:31.532Z,1012.87
2018-06-22T03:00:31.647Z,1012.78
2018-06-22T03:01:31.471Z,1012.80
2018-06-22T03:02:31.441Z,1012.77
2018-06-22T03:03:31.424Z,1012.76
2018-06-22T03:04:31.392Z,1012.84
2018-06-22T03:05:31.365Z,1012.91
2018-06-22T03:06:31.337Z,1012.94
2018-06-22T03:07:31.304Z,1012.84
2018-06-22T03:08:31.279Z,1012.75
2018-06-22T03:09:31.248Z,1012.76
2018-06-22T03:10:31.228Z,1012.76
2018-06-22T03:11:31.193Z,1012.86
2018-06-22T03:12:31.167Z,1012.95
2018-06-22T03:13:31.142Z,1012.95
2018-06-22T03:14:31.112Z,1012.90
2018-06-22T03:15:31.089Z,1012.83
2018-06-22T03:16:31.057Z,1012.87
2018-06-22T03:17:31.027Z,1012.83
2018-06-22T03:18:31.003Z,1012.74
2018-06-22T03:19:30.972Z,1012.84
2018-06-22T03:20:30.944Z,1012.81
2018-06-22T03:21:30.916Z,1012.83
2018-06-22T03:22:30.889Z,1012.79
2018-06-22T03:23:30.869Z,1012.76
2018-06-22T03:24:30.983Z,1012.75
2018-06-22T03:25:30.807Z,1012.76
2018-06-22T03:26:30.780Z,1012.76
2018-06-22T03:27:30.752Z,1012.73
2018-06-22T03:28:30.724Z,1012.72
2018-06-22T03:29:30.694Z,1012.74
2018-06-22T03:30:30.667Z,1012.69
2018-06-22T03:31:30.637Z,1012.70
2018-06-22T03:32:30.612Z,1012.73
2018-06-22T03:33:30.585Z,1012.66
2018-06-22T03:34:30.557Z,1012.71
2018-06-22T03:35:30.528Z,1012.78
2018-06-22T03:36:30.500Z,1012.74
2018-06-22T03:37:30.473Z,1012.79
2018-06-22T03:38:30.445Z,1012.73
2018-06-22T03:39:30.462Z,1012.72
2018-06-22T03:40:30.390Z,1012.65
2018-06-22T03:41:30.361Z,1012.66
2018-06-22T03:42:30.332Z,1012.67
2018-06-22T03:43:30.303Z,1012.73
2018-06-22T03:44:30.275Z,1012.74
2018-06-22T03:45:30.250Z,1012.69
2018-06-22T03:46:30.222Z,1012.70
2018-06-22T03:47:30.193Z,1012.76
2018-06-22T03:48:30.169Z,1012.74
2018-06-22T03:49:30.136Z,1012.78
2018-06-22T03:50:30.112Z,1012.84
2018-06-22T03:51:30.081Z,1012.77
2018-06-22T03:52:30.055Z,1012.78
2018-06-22T03:53:30.027Z,1012.82
2018-06-22T03:54:29.999Z,1012.72
2018-06-22T03:55:29.971Z,1012.76
2018-06-22T03:56:29.943Z,1012.71
2018-06-22T03:57:29.917Z,1012.79
2018-06-22T03:58:29.890Z,1012.75
2018-06-22T03:59:29.861Z,1012.82
2018-06-22T04:00:29.834Z,1012.83
2018-06-22T04:01:29.805Z,1012.82
2018-06-22T04:02:29.777Z,1012.75
2018-06-22T04:03:29.748Z,1012.74
2018-06-22T04:04:29.722Z,1012.77
2018-06-22T04:05:29.703Z,1012.65
2018-06-22T04:06:29.671Z,1012.74
2018-06-22T04:07:29.641Z,1012.72
2018-06-22T04:08:29.614Z,1012.76
2018-06-22T04:09:29.585Z,1012.67
2018-06-22T04:10:29.559Z,1012.63
2018-06-22T04:11:29.681Z,1012.61
2018-06-22T04:12:29.503Z,1012.56
2018-06-22T04:13:29.474Z,1012.54
2018-06-22T04:14:29.447Z,1012.52
2018-06-22T04:15:29.417Z,1012.48
2018-06-22T04:16:29.391Z,1012.57
2018-06-22T04:17:29.365Z,1012.50
2018-06-22T04:18:29.340Z,1012.48
2018-06-22T04:19:29.311Z,1012.54
2018-06-22T04:20:29.288Z,1012.54
2018-06-22T04:21:29.255Z,1012.57
2018-06-22T04:22:29.226Z,1012.53
2018-06-22T04:23:29.199Z,1012.53
2018-06-22T04:24:29.178Z,1012.59
2018-06-22T04:25:29.151Z,1012.57
2018-06-22T04:26:29.122Z,1012.50
2018-06-22T04:27:29.091Z,1012.48
2018-06-22T04:28:29.062Z,1012.60
2018-06-22T04:29:29.187Z,1012.69
2018-06-22T04:30:29.010Z,1012.71
2018-06-22T04:31:28.984Z,1012.76
2018-06-22T04:32:28.956Z,1012.63
2018-06-22T04:33:28.924Z,1012.63
2018-06-22T04:34:28.906Z,1012.71
2018-06-22T04:35:28.870Z,1012.47
2018-06-22T04:36:28.845Z,1012.64
2018-06-22T04:37:28.818Z,1012.55
2018-06-22T04:38:28.789Z,1012.61
2018-06-22T04:39:28.764Z,1012.64
2018-06-22T04:40:28.735Z,1012.57
2018-06-22T04:41:28.707Z,1012.65
2018-06-22T04:42:28.686Z,1012.68
2018-06-22T04:43:28.652Z,1012.64
2018-06-22T04:44:28.628Z,1012.65
2018-06-22T04:45:28.596Z,1012.66
2018-06-22T04:46:28.572Z,1012.65
2018-06-22T04:47:28.690Z,1012.70
2018-06-22T04:48:28.514Z,1012.73
2018-06-22T04:49:28.487Z,1012.87
2018-06-22T04:50:28.462Z,1012.90
2018-06-22T04:51:28.436Z,1012.86
2018-06-22T04:52:28.406Z,1012.86
2018-06-22T04:53:28.383Z,1012.89
2018-06-22T04:54:28.351Z,1012.85
2018-06-22T04:55:28.323Z,1012.91
2018-06-22T04:56:28.297Z,1012.81
2018-06-22T04:57:28.268Z,1012.82
2018-06-22T04:58:28.243Z,1012.80
2018-06-22T04:59:28.214Z,1012.82
2018-06-22T05:00:28.191Z,1012.93
2018-06-22T05:01:28.164Z,1012.88
2018-06-22T05:02:28.136Z,1012.89
2018-06-22T05:03:28.108Z,1012.87
2018-06-22T05:04:28.984Z,1012.88
2018-06-22T05:05:28.057Z,1012.83
2018-06-22T05:06:28.028Z,1012.71
2018-06-22T05:07:28.014Z,1012.84
2018-06-22T05:08:27.974Z,1012.85
2018-06-22T05:09:27.949Z,1012.83
2018-06-22T05:10:27.974Z,1012.86
2018-06-22T05:11:27.893Z,1012.94
2018-06-22T05:12:27.865Z,1012.90
2018-06-22T05:13:27.836Z,1012.92
2018-06-22T05:14:27.808Z,1012.90
2018-06-22T05:15:27.781Z,1012.95
2018-06-22T05:16:27.761Z,1012.89
2018-06-22T05:17:27.729Z,1012.97
2018-06-22T05:18:27.704Z,1012.95
2018-06-22T05:19:27.674Z,1012.96
2018-06-22T05:20:27.647Z,1013.01
2018-06-22T05:21:27.619Z,1013.01
2018-06-22T05:22:27.591Z,1012.84
2018-06-22T05:23:27.563Z,1012.94
2018-06-22T05:24:27.542Z,1013.01
2018-06-22T05:25:27.510Z,1013.02
2018-06-22T05:26:27.485Z,1012.95
2018-06-22T05:27:27.461Z,1013.04
2018-06-22T05:28:27.435Z,1012.96
2018-06-22T05:29:27.411Z,1013.04
2018-06-22T05:30:27.411Z,1013.13
2018-06-22T05:31:27.347Z,1013.12
2018-06-22T05:32:27.328Z,1013.12
2018-06-22T05:33:27.292Z,1013.15
2018-06-22T05:34:27.265Z,1013.21
2018-06-22T05:35:27.240Z,1013.24
2018-06-22T05:36:27.213Z,1013.17
2018-06-22T05:37:27.186Z,1013.20
2018-06-22T05:38:27.160Z,1013.32
2018-06-22T05:39:27.130Z,1013.39
2018-06-22T05:40:27.105Z,1013.38
2018-06-22T05:41:27.099Z,1013.36
2018-06-22T05:42:27.050Z,1013.34
2018-06-22T05:43:27.024Z,1013.25
2018-06-22T05:44:26.999Z,1013.46
2018-06-22T05:45:26.970Z,1013.36
2018-06-22T05:46:26.942Z,1013.36
2018-06-22T05:47:26.917Z,1013.35
2018-06-22T05:48:26.890Z,1013.41
2018-06-22T05:49:26.866Z,1013.31
2018-06-22T05:50:26.840Z,1013.38
2018-06-22T05:51:26.814Z,1013.47
2018-06-22T05:52:26.785Z,1013.41
2018-06-22T05:53:26.758Z,1013.55
2018-06-22T05:54:26.733Z,1013.58
2018-06-22T05:55:26.707Z,1013.59
2018-06-22T05:56:26.713Z,1013.59
2018-06-22T05:57:26.655Z,1013.61
2018-06-22T05:58:26.629Z,1013.70
2018-06-22T05:59:26.603Z,1014.23
2018-06-22T06:00:26.576Z,1014.06
2018-06-22T06:01:26.770Z,1013.94
2018-06-22T06:02:26.526Z,1014.23
2018-06-22T06:03:26.557Z,1013.92
2018-06-22T06:04:26.477Z,1013.81
2018-06-22T06:05:26.448Z,1013.77
2018-06-22T06:06:26.421Z,1013.65
2018-06-22T06:07:26.398Z,1013.65
2018-06-22T06:08:26.368Z,1013.78
2018-06-22T06:09:26.347Z,1013.75
2018-06-22T06:10:26.322Z,1013.75
2018-06-22T06:11:26.295Z,1013.83
2018-06-22T06:12:26.394Z,1013.76
2018-06-22T06:13:26.246Z,1013.82
2018-06-22T06:14:26.219Z,1013.78
2018-06-22T06:15:26.194Z,1013.89
2018-06-22T06:16:26.168Z,1013.79
2018-06-22T06:17:26.144Z,1013.82
2018-06-22T06:18:26.120Z,1013.96
2018-06-22T06:19:26.094Z,1013.80
2018-06-22T06:20:26.067Z,1013.86
2018-06-22T06:21:26.041Z,1013.80
2018-06-22T06:22:26.020Z,1013.83
2018-06-22T06:23:25.990Z,1013.63
2018-06-22T06:24:25.964Z,1013.75
2018-06-22T06:25:25.940Z,1013.82
2018-06-22T06:26:25.916Z,1013.86
2018-06-22T06:27:25.891Z,1013.87
2018-06-22T06:28:25.866Z,1013.88
2018-06-22T06:29:25.838Z,1013.92
2018-06-22T06:30:25.811Z,1013.88
2018-06-22T06:31:25.787Z,1013.87
2018-06-22T06:32:25.760Z,1013.92
2018-06-22T06:33:25.733Z,1013.96
2018-06-22T06:34:25.762Z,1013.97
2018-06-22T06:35:25.681Z,1014.10
2018-06-22T06:36:25.657Z,1014.08
2018-06-22T06:37:25.632Z,1014.44
2018-06-22T06:38:25.607Z,1014.23
2018-06-22T06:39:25.580Z,1014.15
2018-06-22T06:40:25.556Z,1014.09
2018-06-22T06:41:25.528Z,1014.16
2018-06-22T06:42:25.527Z,1014.09
2018-06-22T06:43:25.481Z,1014.13
2018-06-22T06:44:25.456Z,1014.17
2018-06-22T06:45:25.431Z,1014.10
2018-06-22T06:46:25.403Z,1014.22
2018-06-22T06:47:25.378Z,1014.20
2018-06-22T06:48:25.354Z,1014.23
2018-06-22T06:49:25.331Z,1014.09
2018-06-22T06:50:25.303Z,1014.10
2018-06-22T06:51:25.282Z,1014.20
2018-06-22T06:52:25.254Z,1014.22
2018-06-22T06:53:25.224Z,1014.20
2018-06-22T06:54:25.198Z,1014.08
2018-06-22T06:55:25.172Z,1014.26
2018-06-22T06:56:25.147Z,1014.21
2018-06-22T06:57:25.123Z,1014.25
2018-06-22T06:58:25.099Z,1014.36
2018-06-22T06:59:25.071Z,1014.29
2018-06-22T07:00:25.046Z,1014.33
2018-06-22T07:01:25.025Z,1014.32
2018-06-22T07:02:25.017Z,1014.32
2018-06-22T07:03:24.965Z,1014.35
2018-06-22T07:04:24.941Z,1014.37
2018-06-22T07:05:24.914Z,1014.35
2018-06-22T07:06:24.890Z,1014.43
2018-06-22T07:07:24.863Z,1014.36
2018-06-22T07:08:24.845Z,1014.38
2018-06-22T07:09:24.815Z,1014.38
2018-06-22T07:10:24.788Z,1014.40
2018-06-22T07:11:24.761Z,1014.38
2018-06-22T07:12:24.738Z,1014.41
2018-06-22T07:13:24.716Z,1014.48
2018-06-22T07:14:24.727Z,1014.66
2018-06-22T07:15:24.660Z,1014.70
2018-06-22T07:16:24.634Z,1014.57
2018-06-22T07:17:24.611Z,1014.47
2018-06-22T07:18:24.583Z,1014.43
2018-06-22T07:19:24.558Z,1014.44
2018-06-22T07:20:24.538Z,1014.45
2018-06-22T07:21:24.508Z,1014.56
2018-06-22T07:22:24.486Z,1014.59
2018-06-22T07:23:24.497Z,1014.61
2018-06-22T07:24:24.431Z,1014.65
2018-06-22T07:25:24.417Z,1015.76
2018-06-22T07:26:24.389Z,1016.19
2018-06-22T07:27:24.358Z,1016.27
2018-06-22T07:28:24.333Z,1016.44
2018-06-22T07:29:24.308Z,1015.29
2018-06-22T07:30:25.044Z,1015.70
2018-06-22T07:31:24.259Z,1016.62
2018-06-22T07:32:24.245Z,1015.26
2018-06-22T07:33:24.218Z,1015.05
2018-06-22T07:34:24.194Z,1015.02
2018-06-22T07:35:24.176Z,1014.87
2018-06-22T07:36:24.299Z,1014.80
2018-06-22T07:37:24.127Z,1014.88
2018-06-22T07:38:24.104Z,1014.85
2018-06-22T07:39:24.081Z,1014.81
2018-06-22T07:40:24.060Z,1014.66
2018-06-22T07:41:24.035Z,1014.82
2018-06-22T07:42:24.014Z,1014.85
2018-06-22T07:43:23.991Z,1014.85
2018-06-22T07:44:23.968Z,1014.87
2018-06-22T07:45:23.948Z,1015.06
2018-06-22T07:46:23.927Z,1015.14
2018-06-22T07:47:23.903Z,1015.63
2018-06-22T07:48:23.885Z,1016.01
2018-06-22T07:49:23.856Z,1015.35
2018-06-22T07:50:23.833Z,1015.35
2018-06-22T07:51:23.811Z,1015.47
2018-06-22T07:52:23.789Z,1015.14
2018-06-22T07:53:23.769Z,1015.15
2018-06-22T07:54:23.745Z,1015.17
2018-06-22T07:55:23.723Z,1015.64
2018-06-22T07:56:23.702Z,1015.80
2018-06-22T07:57:23.884Z,1016.07
2018-06-22T07:58:23.662Z,1016.32
2018-06-22T07:59:23.639Z,1016.25
2018-06-22T08:00:23.634Z,1016.43
2018-06-22T08:01:23.594Z,1016.53
2018-06-22T08:02:23.572Z,1015.15
2018-06-22T08:03:23.552Z,1016.53
2018-06-22T08:04:23.532Z,1015.70
2018-06-22T08:05:23.516Z,1015.56
2018-06-22T08:06:23.575Z,1015.48
2018-06-22T08:07:23.477Z,1015.60
2018-06-22T08:08:23.453Z,1016.57
2018-06-22T08:09:23.435Z,1015.20
2018-06-22T08:10:23.418Z,1015.13
2018-06-22T08:11:23.598Z,1015.24
2018-06-22T08:12:23.377Z,1015.81
2018-06-22T08:13:23.360Z,1015.05
2018-06-22T08:14:23.337Z,1016.22
2018-06-22T08:15:23.318Z,1014.82
2018-06-22T08:16:23.299Z,1014.97
2018-06-22T08:17:23.282Z,1015.01
2018-06-22T08:18:23.268Z,1015.13
2018-06-22T08:19:23.241Z,1015.17
2018-06-22T08:20:23.239Z,1015.35
2018-06-22T08:21:23.203Z,1015.18
2018-06-22T08:22:23.182Z,1015.12
2018-06-22T08:23:23.161Z,1015.10
2018-06-22T08:24:23.141Z,1014.96
2018-06-22T08:25:23.122Z,1014.98
2018-06-22T08:26:23.104Z,1015.07
2018-06-22T08:27:23.080Z,1015.03
2018-06-22T08:28:23.060Z,1015.04
2018-06-22T08:29:23.042Z,1015.13
2018-06-22T08:30:23.028Z,1015.17
2018-06-22T08:31:22.999Z,1015.35
2018-06-22T08:32:22.980Z,1016.52
2018-06-22T08:33:22.957Z,1015.47
2018-06-22T08:34:23.185Z,1015.46
2018-06-22T08:35:22.913Z,1015.52
2018-06-22T08:36:22.892Z,1015.43
2018-06-22T08:37:22.874Z,1015.39
2018-06-22T08:38:22.852Z,1015.45
2018-06-22T08:39:22.831Z,1015.54
2018-06-22T08:40:22.813Z,1015.89
2018-06-22T08:41:22.798Z,1015.56
2018-06-22T08:42:22.774Z,1015.45
2018-06-22T08:43:22.748Z,1015.40
2018-06-22T08:44:22.726Z,1015.39
2018-06-22T08:45:22.705Z,1015.46
2018-06-22T08:46:22.684Z,1015.31
2018-06-22T08:47:22.663Z,1015.55
2018-06-22T08:48:22.645Z,1015.82
2018-06-22T08:49:22.628Z,1016.24
2018-06-22T08:50:22.602Z,1016.59
2018-06-22T08:51:22.583Z,1016.48
2018-06-22T08:52:22.559Z,1016.63
2018-06-22T08:53:22.538Z,1016.85
2018-06-22T08:54:22.521Z,1015.64
2018-06-22T08:55:22.498Z,1016.80
2018-06-22T08:56:22.477Z,1016.63
2018-06-22T08:57:22.462Z,1016.49
2018-06-22T08:58:22.440Z,1016.48
2018-06-22T08:59:22.622Z,1016.47
2018-06-22T09:00:22.405Z,1016.57
2018-06-22T09:01:22.622Z,1016.13
2018-06-22T09:02:22.567Z,1015.56
2018-06-22T09:03:22.553Z,1015.89
2018-06-22T09:04:22.833Z,1016.57
2018-06-22T09:05:22.308Z,1016.50
2018-06-22T09:06:22.498Z,1016.53
2018-06-22T09:07:22.879Z,1016.53
2018-06-22T09:08:22.458Z,1016.62
2018-06-22T09:09:22.443Z,1016.47
2018-06-22T09:10:25.046Z,1016.50
2018-06-22T09:11:22.405Z,1016.43
2018-06-22T09:12:22.392Z,1016.47
2018-06-22T09:13:22.372Z,1016.50
2018-06-22T09:14:22.388Z,1016.64
2018-06-22T09:15:22.338Z,1016.74
2018-06-22T09:16:22.318Z,1016.78
2018-06-22T09:17:22.301Z,1016.72
2018-06-22T09:18:22.284Z,1015.54
2018-06-22T09:19:22.065Z,1015.47
2018-06-22T09:20:22.049Z,1015.40
2018-06-22T09:21:22.236Z,1015.24
2018-06-22T09:22:22.219Z,1015.20
2018-06-22T09:23:22.201Z,1015.22
2018-06-22T09:24:22.182Z,1014.98
2018-06-22T09:25:21.984Z,1015.12
2018-06-22T09:26:22.145Z,1015.15
2018-06-22T09:27:21.924Z,1015.15
2018-06-22T09:28:22.059Z,1016.50
2018-06-22T09:29:21.890Z,1016.70
2018-06-22T09:30:21.867Z,1016.66
2018-06-22T09:31:21.853Z,1016.76
2018-06-22T09:32:21.829Z,1016.76
2018-06-22T09:33:21.811Z,1016.79
2018-06-22T09:34:21.994Z,1016.62
2018-06-22T09:35:21.971Z,1016.43
2018-06-22T09:36:21.957Z,1016.29
2018-06-22T09:37:21.940Z,1016.06
2018-06-22T09:38:21.772Z,1016.04
2018-06-22T09:39:21.900Z,1015.88
2018-06-22T09:40:22.033Z,1015.91
2018-06-22T09:41:21.865Z,1015.97
2018-06-22T09:42:21.850Z,1015.90
2018-06-22T09:43:21.628Z,1016.11
2018-06-22T09:44:21.815Z,1016.01
2018-06-22T09:45:21.798Z,1015.95
2018-06-22T09:46:21.785Z,1015.55
2018-06-22T09:47:21.562Z,1015.43
2018-06-22T09:48:21.553Z,1015.53
2018-06-22T09:49:21.534Z,1015.88
2018-06-22T09:50:21.517Z,1015.71
2018-06-22T09:51:21.507Z,1016.06
2018-06-22T09:52:21.485Z,1015.70
2018-06-22T09:53:21.469Z,1016.18
2018-06-22T09:54:21.455Z,1015.85
2018-06-22T09:55:21.437Z,1015.76
2018-06-22T09:56:21.419Z,1015.89
2018-06-22T09:57:21.404Z,1015.78
2018-06-22T09:58:21.392Z,1015.98
2018-06-22T09:59:21.373Z,1015.75
2018-06-22T10:00:21.357Z,1015.66
2018-06-22T10:01:21.340Z,1015.57
2018-06-22T10:02:21.323Z,1015.59
2018-06-22T10:03:21.507Z,1015.57
2018-06-22T10:04:21.491Z,1015.59
2018-06-22T10:05:21.475Z,1015.53
2018-06-22T10:06:21.459Z,1015.48
2018-06-22T10:07:21.436Z,1015.63
2018-06-22T10:08:21.487Z,1015.57
2018-06-22T10:09:21.402Z,1015.59
2018-06-22T10:10:21.180Z,1015.58
2018-06-22T10:11:21.369Z,1015.62
2018-06-22T10:12:21.347Z,1015.59
2018-06-22T10:13:21.325Z,1016.01
2018-06-22T10:14:21.105Z,1016.10
2018-06-22T10:15:21.283Z,1016.21
2018-06-22T10:16:21.263Z,1016.20
2018-06-22T10:17:21.244Z,1016.05
2018-06-22T10:18:21.225Z,1016.06
2018-06-22T10:19:21.204Z,1016.05
2018-06-22T10:20:20.985Z,1016.21
2018-06-22T10:21:20.968Z,1016.18
2018-06-22T10:22:21.152Z,1016.35
2018-06-22T10:23:21.136Z,1016.12
2018-06-22T10:25:04.487Z,1016.22
2018-06-22T10:26:03.258Z,1016.14
2018-06-22T10:27:45.394Z,1016.44
2018-06-22T10:28:45.380Z,1016.30
2018-06-22T10:29:45.162Z,1016.44
2018-06-22T10:30:45.343Z,1016.39
2018-06-22T10:31:45.124Z,1016.48
2018-06-22T10:32:45.313Z,1016.68
2018-06-22T10:33:45.293Z,1016.76
2018-06-22T10:34:45.280Z,1016.74
2018-06-22T10:35:45.062Z,1015.97
2018-06-22T10:36:45.051Z,1015.88
2018-06-22T10:37:45.031Z,1015.95
2018-06-22T10:38:45.016Z,1015.83
2018-06-22T10:39:44.997Z,1015.67
2018-06-22T10:40:45.182Z,1015.80
2018-06-22T10:42:27.324Z,1015.76
2018-06-22T10:43:27.308Z,1015.78
2018-06-22T10:44:27.293Z,1016.69
2018-06-22T10:45:27.270Z,1016.61
2018-06-22T10:46:27.257Z,1016.66
2018-06-22T10:47:27.030Z,1016.68
2018-06-22T10:48:27.216Z,1016.77
2018-06-22T10:49:27.007Z,1016.75
2018-06-22T10:50:26.991Z,1016.80
2018-06-22T10:51:27.020Z,1016.97
2018-06-22T10:52:26.956Z,1016.89
2018-06-22T10:53:27.129Z,1015.98
2018-06-22T10:54:26.912Z,1015.95
2018-06-22T10:55:26.892Z,1015.89
2018-06-22T10:56:26.877Z,1016.10
2018-06-22T10:57:26.860Z,1016.17
2018-06-22T10:58:27.052Z,1016.16
2018-06-22T10:59:26.824Z,1016.21
2018-06-22T11:00:26.807Z,1016.18
2018-06-22T11:01:26.795Z,1016.45
2018-06-22T11:02:26.774Z,1016.19
2018-06-22T11:03:26.957Z,1016.77
2018-06-22T11:04:26.743Z,1017.34
2018-06-22T11:05:26.721Z,1017.48
2018-06-22T11:06:26.706Z,1017.59
2018-06-22T11:07:26.683Z,1017.49
2018-06-22T11:08:26.867Z,1016.44
2018-06-22T11:09:26.853Z,1017.01
2018-06-22T11:10:26.836Z,1017.69
2018-06-22T11:11:26.617Z,1017.11
2018-06-22T11:12:26.601Z,1017.60
2018-06-22T11:13:26.849Z,1017.55
2018-06-22T11:14:26.569Z,1017.57
2018-06-22T11:15:26.561Z,1017.63
2018-06-22T11:16:26.741Z,1017.26
2018-06-22T11:17:26.722Z,1017.60
2018-06-22T11:18:26.647Z,1017.61
2018-06-22T11:19:27.296Z,1017.61
2018-06-22T11:20:26.474Z,1017.51
2018-06-22T11:21:26.461Z,1017.62
2018-06-22T11:22:26.446Z,1017.71
2018-06-22T11:23:26.431Z,1017.70
2018-06-22T11:24:26.434Z,1017.48
2018-06-22T11:25:26.613Z,1017.61
2018-06-22T11:26:26.385Z,1017.55
2018-06-22T11:27:26.410Z,1017.71
2018-06-22T11:28:26.355Z,1017.54
2018-06-22T11:29:26.341Z,1017.71
2018-06-22T11:30:26.329Z,1017.96
2018-06-22T11:31:26.315Z,1016.63
2018-06-22T11:32:26.297Z,1016.60
2018-06-22T11:33:26.288Z,1016.72
2018-06-22T11:34:26.474Z,1016.35
2018-06-22T11:35:26.256Z,1016.47
2018-06-22T11:36:26.316Z,1016.78
2018-06-22T11:37:26.226Z,1017.20
2018-06-22T11:38:26.208Z,1017.91
2018-06-22T11:39:26.192Z,1017.17
2018-06-22T11:40:26.176Z,1016.33
2018-06-22T11:41:26.271Z,1016.30
2018-06-22T11:42:26.348Z,1016.43
2018-06-22T11:43:26.330Z,1016.55
2018-06-22T11:44:26.320Z,1016.86
2018-06-22T11:45:26.445Z,1016.73
2018-06-22T11:46:26.276Z,1017.41
2018-06-22T11:47:26.258Z,1017.01
2018-06-22T11:48:26.245Z,1017.53
2018-06-22T11:49:26.025Z,1016.56
2018-06-22T11:50:26.011Z,1016.57
2018-06-22T11:51:25.989Z,1016.55
2018-06-22T11:52:26.176Z,1016.58
2018-06-22T11:53:26.152Z,1016.75
2018-06-22T11:54:25.932Z,1017.04
2018-06-22T11:55:26.120Z,1018.12
2018-06-22T11:56:26.100Z,1017.40
2018-06-22T11:57:26.087Z,1016.82
2018-06-22T11:58:25.862Z,1016.68
2018-06-22T11:59:25.843Z,1016.57
2018-06-22T12:00:25.823Z,1017.69
2018-06-22T12:01:25.807Z,1016.99
2018-06-22T12:02:25.796Z,1017.40
2018-06-22T12:03:25.771Z,1016.79
2018-06-22T12:04:25.756Z,1016.83
2018-06-22T12:05:25.733Z,1017.07
2018-06-22T12:06:25.916Z,1017.55
2018-06-22T12:07:25.696Z,1017.66